Погода Баровона 2 недели

Гродненская область, Белоруссия

19 - 31 июля
  • 19июля
    Сегодня
    +12°
    +24°
    Практически безоблачно
    ВремяПогодаТемператураВлажностьДавлениеВетер, м/сВероятность осадков
    00:00Ясно и безоблачно+18°C72 %739 мм3.4 м/с2 %
    03:00Ясно и безоблачно+16°C78 %739 мм3.7 м/с2 %
    06:00Облачно с прояснениями+14°C89 %739 мм3.9 м/с2 %
    09:00Небольшая облачность+17°C75 %739 мм4.3 м/с2 %
    12:00Ясно и безоблачно+21°C63 %739 мм3.9 м/с2 %
    15:00Практически безоблачно+23°C55 %739 мм4.3 м/с2 %
    18:00Ясно и безоблачно+24°C49 %738 мм4.4 м/с2 %
    21:00Ясно и безоблачно+21°C61 %737 мм3.0 м/с2 %
  • 20июля
    Суббота
    +14°
    +23°
    Облачно с прояснениями
    ВремяПогодаТемператураВлажностьДавлениеВетер, м/сВероятность осадков
    00:00Ясно и безоблачно+17°C66 %737 мм3.5 м/с2 %
    03:00Ясно и безоблачно+14°C80 %736 мм2.6 м/с2 %
    06:00Ясно и безоблачно+13°C86 %736 мм2.9 м/с2 %
    09:00Ясно и безоблачно+17°C79 %736 мм2.7 м/с2 %
    12:00Практически безоблачно+20°C63 %736 мм2.1 м/с3 %
    15:00Облачно с прояснениями+22°C56 %735 мм2.6 м/с3 %
    18:00Облачно с прояснениями+23°C53 %734 мм2.9 м/с2 %
    21:00Ясно и безоблачно+21°C74 %734 мм1.8 м/с2 %
  • 21июля
    Воскресенье
    +16°
    +25°
    Практически безоблачно
    ВремяПогодаТемператураВлажностьДавлениеВетер, м/сВероятность осадков
    00:00Небольшая облачность+17°C76 %733 мм2.2 м/с2 %
    03:00Ясно и безоблачно+16°C79 %733 мм2.4 м/с2 %
    06:00Практически безоблачно+15°C81 %733 мм1.9 м/с2 %
    09:00Ясно и безоблачно+20°C64 %733 мм0.9 м/с2 %
    12:00Практически безоблачно+23°C49 %733 мм3.2 м/с27 %
    15:00Практически безоблачно+24°C45 %732 мм3.2 м/с41 %
    18:00Практически безоблачно+25°C44 %732 мм2.7 м/с24 %
    21:00Практически безоблачно+22°C71 %732 мм1.6 м/с5 %
  • 22июля
    Понедельник
    +17°
    +26°
    Ясно и безоблачно
    ВремяПогодаТемператураВлажностьДавлениеВетер, м/сВероятность осадков
    00:00Ясно и безоблачно+20°C69 %732 мм1.5 м/с2 %
    03:00Ясно и безоблачно+18°C70 %732 мм1.2 м/с2 %
    06:00Ясно и безоблачно+17°C73 %731 мм1.5 м/с2 %
    09:00Ясно и безоблачно+22°C61 %732 мм1.8 м/с2 %
    12:00Практически безоблачно+24°C49 %732 мм0.6 м/с18 %
    15:00Ясно и безоблачно+26°C45 %732 мм0.4 м/с30 %
    18:00Практически безоблачно+25°C45 %732 мм0.6 м/с23 %
    21:00Ясно и безоблачно+22°C67 %732 мм1.7 м/с7 %
Мы используем cookies
Соглашаюсь